sensor_id;sensor_type;location;lat;lon;timestamp;temperature;humidity
6672;DHT22;3372;48.690;12.362;2022-11-15T00:01:37;7.60;44.70
6672;DHT22;3372;48.690;12.362;2022-11-15T00:04:04;7.60;44.60
6672;DHT22;3372;48.690;12.362;2022-11-15T00:06:30;7.60;44.30
6672;DHT22;3372;48.690;12.362;2022-11-15T00:08:58;7.60;44.30
6672;DHT22;3372;48.690;12.362;2022-11-15T00:11:24;7.60;44.20
6672;DHT22;3372;48.690;12.362;2022-11-15T00:13:50;7.60;44.40
6672;DHT22;3372;48.690;12.362;2022-11-15T00:16:15;7.60;43.90
6672;DHT22;3372;48.690;12.362;2022-11-15T00:18:41;7.60;43.70
6672;DHT22;3372;48.690;12.362;2022-11-15T00:21:10;7.50;43.60
6672;DHT22;3372;48.690;12.362;2022-11-15T00:23:36;7.50;44.10
6672;DHT22;3372;48.690;12.362;2022-11-15T00:26:02;7.40;44.00
6672;DHT22;3372;48.690;12.362;2022-11-15T00:28:28;7.50;43.70
6672;DHT22;3372;48.690;12.362;2022-11-15T00:31:00;7.30;44.00
6672;DHT22;3372;48.690;12.362;2022-11-15T00:33:26;7.30;43.70
6672;DHT22;3372;48.690;12.362;2022-11-15T00:35:52;7.30;43.90
6672;DHT22;3372;48.690;12.362;2022-11-15T00:38:17;7.20;44.10
6672;DHT22;3372;48.690;12.362;2022-11-15T00:40:43;7.40;44.30
6672;DHT22;3372;48.690;12.362;2022-11-15T00:43:08;7.00;43.40
6672;DHT22;3372;48.690;12.362;2022-11-15T00:45:34;7.30;43.30
6672;DHT22;3372;48.690;12.362;2022-11-15T00:48:00;6.90;42.60
6672;DHT22;3372;48.690;12.362;2022-11-15T00:50:25;7.40;43.10
6672;DHT22;3372;48.690;12.362;2022-11-15T00:52:51;7.30;43.30
6672;DHT22;3372;48.690;12.362;2022-11-15T00:55:17;7.20;43.20
6672;DHT22;3372;48.690;12.362;2022-11-15T00:57:43;7.20;43.40
6672;DHT22;3372;48.690;12.362;2022-11-15T01:00:09;7.20;43.30
6672;DHT22;3372;48.690;12.362;2022-11-15T01:02:35;7.20;43.20
6672;DHT22;3372;48.690;12.362;2022-11-15T01:05:01;7.20;43.70
6672;DHT22;3372;48.690;12.362;2022-11-15T01:07:27;7.20;42.90
6672;DHT22;3372;48.690;12.362;2022-11-15T01:09:52;7.00;42.90
6672;DHT22;3372;48.690;12.362;2022-11-15T01:12:18;7.00;42.90
6672;DHT22;3372;48.690;12.362;2022-11-15T01:14:44;6.80;42.70
6672;DHT22;3372;48.690;12.362;2022-11-15T01:17:10;6.90;43.60
6672;DHT22;3372;48.690;12.362;2022-11-15T01:19:35;6.90;43.20
6672;DHT22;3372;48.690;12.362;2022-11-15T01:22:01;7.00;43.30
6672;DHT22;3372;48.690;12.362;2022-11-15T01:24:26;7.00;43.10
6672;DHT22;3372;48.690;12.362;2022-11-15T01:26:52;7.00;43.00
6672;DHT22;3372;48.690;12.362;2022-11-15T01:29:18;7.00;42.90
6672;DHT22;3372;48.690;12.362;2022-11-15T01:31:43;7.00;43.00
6672;DHT22;3372;48.690;12.362;2022-11-15T01:34:09;7.00;43.00
6672;DHT22;3372;48.690;12.362;2022-11-15T01:36:34;6.90;43.80
6672;DHT22;3372;48.690;12.362;2022-11-15T01:39:00;6.80;42.90
6672;DHT22;3372;48.690;12.362;2022-11-15T01:41:29;7.00;43.30
6672;DHT22;3372;48.690;12.362;2022-11-15T01:46:45;6.70;44.30
6672;DHT22;3372;48.690;12.362;2022-11-15T01:49:17;6.70;44.90
6672;DHT22;3372;48.690;12.362;2022-11-15T01:51:43;6.80;44.50
6672;DHT22;3372;48.690;12.362;2022-11-15T01:54:13;6.40;43.60
6672;DHT22;3372;48.690;12.362;2022-11-15T01:57:04;6.60;44.00
6672;DHT22;3372;48.690;12.362;2022-11-15T01:59:32;6.70;44.20
6672;DHT22;3372;48.690;12.362;2022-11-15T02:01:58;6.90;43.80
6672;DHT22;3372;48.690;12.362;2022-11-15T02:04:35;6.70;43.70
6672;DHT22;3372;48.690;12.362;2022-11-15T02:07:05;6.60;44.10
6672;DHT22;3372;48.690;12.362;2022-11-15T02:09:32;6.80;44.00
6672;DHT22;3372;48.690;12.362;2022-11-15T02:11:58;6.70;43.60
6672;DHT22;3372;48.690;12.362;2022-11-15T02:14:26;6.70;43.10
6672;DHT22;3372;48.690;12.362;2022-11-15T02:20:30;7.00;43.60
6672;DHT22;3372;48.690;12.362;2022-11-15T02:31:59;6.70;43.10
6672;DHT22;3372;48.690;12.362;2022-11-15T02:34:29;6.70;43.80
6672;DHT22;3372;48.690;12.362;2022-11-15T02:42:32;6.70;44.00
6672;DHT22;3372;48.690;12.362;2022-11-15T02:45:21;6.70;43.40
6672;DHT22;3372;48.690;12.362;2022-11-15T02:47:50;6.00;42.90
6672;DHT22;3372;48.690;12.362;2022-11-15T02:50:20;6.40;42.90
6672;DHT22;3372;48.690;12.362;2022-11-15T02:52:48;6.70;43.20
6672;DHT22;3372;48.690;12.362;2022-11-15T02:55:32;6.60;42.80
6672;DHT22;3372;48.690;12.362;2022-11-15T03:01:20;6.20;42.30
6672;DHT22;3372;48.690;12.362;2022-11-15T03:11:30;6.40;42.20
6672;DHT22;3372;48.690;12.362;2022-11-15T03:14:13;6.40;42.40
6672;DHT22;3372;48.690;12.362;2022-11-15T03:19:46;6.40;42.40
6672;DHT22;3372;48.690;12.362;2022-11-15T03:22:16;6.20;42.30
6672;DHT22;3372;48.690;12.362;2022-11-15T03:24:45;6.20;42.10
6672;DHT22;3372;48.690;12.362;2022-11-15T03:27:16;6.20;42.10
6672;DHT22;3372;48.690;12.362;2022-11-15T03:29:47;6.10;42.20
6672;DHT22;3372;48.690;12.362;2022-11-15T03:32:19;6.20;42.30
6672;DHT22;3372;48.690;12.362;2022-11-15T03:34:56;6.30;42.20
6672;DHT22;3372;48.690;12.362;2022-11-15T03:37:27;6.00;42.40
6672;DHT22;3372;48.690;12.362;2022-11-15T03:39:55;6.30;42.80
6672;DHT22;3372;48.690;12.362;2022-11-15T03:47:35;6.10;42.40
6672;DHT22;3372;48.690;12.362;2022-11-15T03:50:08;6.20;42.30
6672;DHT22;3372;48.690;12.362;2022-11-15T03:52:35;6.10;42.60
6672;DHT22;3372;48.690;12.362;2022-11-15T03:55:02;6.10;42.50
6672;DHT22;3372;48.690;12.362;2022-11-15T03:57:29;6.20;42.90
6672;DHT22;3372;48.690;12.362;2022-11-15T03:59:55;6.20;42.80
6672;DHT22;3372;48.690;12.362;2022-11-15T04:02:21;6.10;41.90
6672;DHT22;3372;48.690;12.362;2022-11-15T04:04:46;6.10;42.50
6672;DHT22;3372;48.690;12.362;2022-11-15T04:07:12;6.00;42.10
6672;DHT22;3372;48.690;12.362;2022-11-15T04:09:38;6.00;42.50
6672;DHT22;3372;48.690;12.362;2022-11-15T04:12:23;5.90;42.40
6672;DHT22;3372;48.690;12.362;2022-11-15T04:17:41;5.90;42.30
6672;DHT22;3372;48.690;12.362;2022-11-15T04:20:13;6.00;42.80
6672;DHT22;3372;48.690;12.362;2022-11-15T04:23:01;6.00;42.80
6672;DHT22;3372;48.690;12.362;2022-11-15T04:25:45;5.90;42.50
6672;DHT22;3372;48.690;12.362;2022-11-15T04:28:11;5.90;42.20
6672;DHT22;3372;48.690;12.362;2022-11-15T04:30:37;6.10;42.80
6672;DHT22;3372;48.690;12.362;2022-11-15T04:33:03;5.80;42.30
6672;DHT22;3372;48.690;12.362;2022-11-15T04:35:29;5.70;41.80
6672;DHT22;3372;48.690;12.362;2022-11-15T04:37:55;5.80;42.20
6672;DHT22;3372;48.690;12.362;2022-11-15T04:40:21;5.90;42.40
6672;DHT22;3372;48.690;12.362;2022-11-15T04:42:47;5.90;42.00
6672;DHT22;3372;48.690;12.362;2022-11-15T04:45:12;5.80;42.40
6672;DHT22;3372;48.690;12.362;2022-11-15T04:47:38;6.10;42.30
6672;DHT22;3372;48.690;12.362;2022-11-15T04:50:04;6.00;42.30
6672;DHT22;3372;48.690;12.362;2022-11-15T04:52:30;5.90;42.30
6672;DHT22;3372;48.690;12.362;2022-11-15T04:54:55;5.90;42.30
6672;DHT22;3372;48.690;12.362;2022-11-15T04:57:21;5.60;41.80
6672;DHT22;3372;48.690;12.362;2022-11-15T04:59:46;5.70;41.80
6672;DHT22;3372;48.690;12.362;2022-11-15T05:02:12;5.70;41.90
6672;DHT22;3372;48.690;12.362;2022-11-15T05:04:38;5.70;41.80
6672;DHT22;3372;48.690;12.362;2022-11-15T05:07:03;5.70;42.10
6672;DHT22;3372;48.690;12.362;2022-11-15T05:09:32;5.70;42.10
6672;DHT22;3372;48.690;12.362;2022-11-15T05:11:57;5.80;42.00
6672;DHT22;3372;48.690;12.362;2022-11-15T05:14:23;5.80;42.00
6672;DHT22;3372;48.690;12.362;2022-11-15T05:16:48;5.60;41.80
6672;DHT22;3372;48.690;12.362;2022-11-15T05:19:14;5.50;41.60
6672;DHT22;3372;48.690;12.362;2022-11-15T05:21:40;5.70;42.00
6672;DHT22;3372;48.690;12.362;2022-11-15T05:24:06;5.60;42.00
6672;DHT22;3372;48.690;12.362;2022-11-15T05:26:32;5.60;42.90
6672;DHT22;3372;48.690;12.362;2022-11-15T05:28:58;5.80;42.10
6672;DHT22;3372;48.690;12.362;2022-11-15T05:31:25;5.80;42.30
6672;DHT22;3372;48.690;12.362;2022-11-15T05:33:51;5.40;42.00
6672;DHT22;3372;48.690;12.362;2022-11-15T05:36:37;5.60;42.10
6672;DHT22;3372;48.690;12.362;2022-11-15T05:39:05;5.70;42.30
6672;DHT22;3372;48.690;12.362;2022-11-15T05:41:39;5.60;42.00
6672;DHT22;3372;48.690;12.362;2022-11-15T05:44:08;5.40;42.80
6672;DHT22;3372;48.690;12.362;2022-11-15T05:46:35;5.60;42.90
6672;DHT22;3372;48.690;12.362;2022-11-15T05:49:05;5.50;42.80
6672;DHT22;3372;48.690;12.362;2022-11-15T05:51:31;5.50;43.10
6672;DHT22;3372;48.690;12.362;2022-11-15T05:53:58;5.30;42.50
6672;DHT22;3372;48.690;12.362;2022-11-15T05:56:25;5.40;43.20
6672;DHT22;3372;48.690;12.362;2022-11-15T05:58:53;5.30;43.10
6672;DHT22;3372;48.690;12.362;2022-11-15T06:01:19;5.40;43.40
6672;DHT22;3372;48.690;12.362;2022-11-15T06:03:45;5.30;43.10
6672;DHT22;3372;48.690;12.362;2022-11-15T06:06:11;5.40;43.10
6672;DHT22;3372;48.690;12.362;2022-11-15T06:08:36;5.20;42.80
6672;DHT22;3372;48.690;12.362;2022-11-15T06:11:08;5.30;43.60
6672;DHT22;3372;48.690;12.362;2022-11-15T06:13:34;5.30;44.00
6672;DHT22;3372;48.690;12.362;2022-11-15T06:16:00;5.30;43.50
6672;DHT22;3372;48.690;12.362;2022-11-15T06:18:26;5.20;45.00
6672;DHT22;3372;48.690;12.362;2022-11-15T06:20:51;5.50;45.10
6672;DHT22;3372;48.690;12.362;2022-11-15T06:23:17;5.40;44.80
6672;DHT22;3372;48.690;12.362;2022-11-15T06:25:43;5.30;44.30
6672;DHT22;3372;48.690;12.362;2022-11-15T06:28:09;5.30;43.70
6672;DHT22;3372;48.690;12.362;2022-11-15T06:30:34;5.30;43.80
6672;DHT22;3372;48.690;12.362;2022-11-15T06:33:01;5.40;43.70
6672;DHT22;3372;48.690;12.362;2022-11-15T06:35:27;5.40;43.70
6672;DHT22;3372;48.690;12.362;2022-11-15T06:37:53;5.50;44.40
6672;DHT22;3372;48.690;12.362;2022-11-15T06:40:19;5.50;44.00
6672;DHT22;3372;48.690;12.362;2022-11-15T06:42:45;5.30;44.20
6672;DHT22;3372;48.690;12.362;2022-11-15T06:45:10;5.50;44.20
6672;DHT22;3372;48.690;12.362;2022-11-15T06:47:47;5.60;44.40
6672;DHT22;3372;48.690;12.362;2022-11-15T06:50:13;5.60;44.20
6672;DHT22;3372;48.690;12.362;2022-11-15T06:52:38;5.20;43.80
6672;DHT22;3372;48.690;12.362;2022-11-15T06:55:04;5.60;44.10
6672;DHT22;3372;48.690;12.362;2022-11-15T06:57:30;5.40;44.20
6672;DHT22;3372;48.690;12.362;2022-11-15T06:59:57;5.60;44.20
6672;DHT22;3372;48.690;12.362;2022-11-15T07:02:23;5.50;44.50
6672;DHT22;3372;48.690;12.362;2022-11-15T07:04:48;5.50;44.40
6672;DHT22;3372;48.690;12.362;2022-11-15T07:07:14;5.50;44.10
6672;DHT22;3372;48.690;12.362;2022-11-15T07:09:39;5.50;43.90
6672;DHT22;3372;48.690;12.362;2022-11-15T07:12:05;5.70;44.20
6672;DHT22;3372;48.690;12.362;2022-11-15T07:14:31;5.70;44.20
6672;DHT22;3372;48.690;12.362;2022-11-15T07:16:56;5.50;44.20
6672;DHT22;3372;48.690;12.362;2022-11-15T07:19:22;5.70;44.90
6672;DHT22;3372;48.690;12.362;2022-11-15T07:21:48;5.70;45.50
6672;DHT22;3372;48.690;12.362;2022-11-15T07:24:13;5.70;46.20
6672;DHT22;3372;48.690;12.362;2022-11-15T07:26:39;5.70;46.20
6672;DHT22;3372;48.690;12.362;2022-11-15T07:29:04;5.80;46.30
6672;DHT22;3372;48.690;12.362;2022-11-15T07:31:30;5.90;46.30
6672;DHT22;3372;48.690;12.362;2022-11-15T07:33:58;5.90;46.20
6672;DHT22;3372;48.690;12.362;2022-11-15T07:36:24;6.00;46.40
6672;DHT22;3372;48.690;12.362;2022-11-15T07:38:50;6.10;47.10
6672;DHT22;3372;48.690;12.362;2022-11-15T07:41:16;5.90;46.90
6672;DHT22;3372;48.690;12.362;2022-11-15T07:43:41;6.00;47.00
6672;DHT22;3372;48.690;12.362;2022-11-15T07:46:08;6.20;47.90
6672;DHT22;3372;48.690;12.362;2022-11-15T07:48:35;6.40;47.40
6672;DHT22;3372;48.690;12.362;2022-11-15T07:51:01;6.10;47.10
6672;DHT22;3372;48.690;12.362;2022-11-15T07:53:27;6.40;49.30
6672;DHT22;3372;48.690;12.362;2022-11-15T07:55:52;6.50;51.00
6672;DHT22;3372;48.690;12.362;2022-11-15T07:58:19;6.80;50.80
6672;DHT22;3372;48.690;12.362;2022-11-15T08:00:45;6.90;51.60
6672;DHT22;3372;48.690;12.362;2022-11-15T08:03:13;7.10;51.80
6672;DHT22;3372;48.690;12.362;2022-11-15T08:05:40;7.20;51.70
6672;DHT22;3372;48.690;12.362;2022-11-15T08:08:07;7.50;51.70
6672;DHT22;3372;48.690;12.362;2022-11-15T08:10:33;7.70;51.30
6672;DHT22;3372;48.690;12.362;2022-11-15T08:13:04;7.80;51.80
6672;DHT22;3372;48.690;12.362;2022-11-15T08:15:30;7.80;51.30
6672;DHT22;3372;48.690;12.362;2022-11-15T08:17:58;8.10;52.00
6672;DHT22;3372;48.690;12.362;2022-11-15T08:20:25;8.00;54.60
6672;DHT22;3372;48.690;12.362;2022-11-15T08:22:51;8.30;54.50
6672;DHT22;3372;48.690;12.362;2022-11-15T08:25:17;8.40;54.00
6672;DHT22;3372;48.690;12.362;2022-11-15T08:27:43;8.50;53.80
6672;DHT22;3372;48.690;12.362;2022-11-15T08:30:09;8.80;53.40
6672;DHT22;3372;48.690;12.362;2022-11-15T08:32:35;8.90;52.80
6672;DHT22;3372;48.690;12.362;2022-11-15T08:35:00;9.10;53.10
6672;DHT22;3372;48.690;12.362;2022-11-15T08:37:26;9.20;52.30
6672;DHT22;3372;48.690;12.362;2022-11-15T08:39:52;9.40;52.10
6672;DHT22;3372;48.690;12.362;2022-11-15T08:42:17;9.50;52.20
6672;DHT22;3372;48.690;12.362;2022-11-15T08:44:43;9.30;52.60
6672;DHT22;3372;48.690;12.362;2022-11-15T08:47:11;9.50;53.30
6672;DHT22;3372;48.690;12.362;2022-11-15T08:49:37;9.40;53.50
6672;DHT22;3372;48.690;12.362;2022-11-15T08:52:03;9.70;53.00
6672;DHT22;3372;48.690;12.362;2022-11-15T08:54:29;9.90;52.80
6672;DHT22;3372;48.690;12.362;2022-11-15T08:56:54;9.90;52.70
6672;DHT22;3372;48.690;12.362;2022-11-15T08:59:21;10.00;51.70
6672;DHT22;3372;48.690;12.362;2022-11-15T09:01:47;10.00;52.10
6672;DHT22;3372;48.690;12.362;2022-11-15T09:04:13;10.10;52.80
6672;DHT22;3372;48.690;12.362;2022-11-15T09:06:39;10.20;52.60
6672;DHT22;3372;48.690;12.362;2022-11-15T09:09:04;10.30;53.40
6672;DHT22;3372;48.690;12.362;2022-11-15T09:11:30;10.40;54.20
6672;DHT22;3372;48.690;12.362;2022-11-15T09:13:55;10.60;53.90
6672;DHT22;3372;48.690;12.362;2022-11-15T09:16:21;10.70;53.80
6672;DHT22;3372;48.690;12.362;2022-11-15T09:18:47;10.80;53.90
6672;DHT22;3372;48.690;12.362;2022-11-15T09:21:13;11.00;53.70
6672;DHT22;3372;48.690;12.362;2022-11-15T09:23:39;11.10;53.90
6672;DHT22;3372;48.690;12.362;2022-11-15T09:26:05;11.30;54.40
6672;DHT22;3372;48.690;12.362;2022-11-15T09:28:32;11.40;53.80
6672;DHT22;3372;48.690;12.362;2022-11-15T09:30:59;11.50;53.80
6672;DHT22;3372;48.690;12.362;2022-11-15T09:33:26;11.70;53.10
6672;DHT22;3372;48.690;12.362;2022-11-15T09:35:51;11.70;51.50
6672;DHT22;3372;48.690;12.362;2022-11-15T09:38:17;11.90;51.20
6672;DHT22;3372;48.690;12.362;2022-11-15T09:40:43;12.00;50.80
6672;DHT22;3372;48.690;12.362;2022-11-15T09:48:53;12.30;49.20
6672;DHT22;3372;48.690;12.362;2022-11-15T09:51:56;12.30;49.30
6672;DHT22;3372;48.690;12.362;2022-11-15T09:54:38;12.40;49.00
6672;DHT22;3372;48.690;12.362;2022-11-15T10:02:33;12.50;49.90
6672;DHT22;3372;48.690;12.362;2022-11-15T10:05:02;12.70;48.10
6672;DHT22;3372;48.690;12.362;2022-11-15T10:12:33;12.90;47.00
6672;DHT22;3372;48.690;12.362;2022-11-15T10:15:02;12.90;46.50
6672;DHT22;3372;48.690;12.362;2022-11-15T10:20:29;12.90;45.10
6672;DHT22;3372;48.690;12.362;2022-11-15T10:22:59;13.00;46.50
6672;DHT22;3372;48.690;12.362;2022-11-15T10:25:27;13.10;46.60
6672;DHT22;3372;48.690;12.362;2022-11-15T10:28:17;13.10;45.00
6672;DHT22;3372;48.690;12.362;2022-11-15T10:30:50;13.20;44.80
6672;DHT22;3372;48.690;12.362;2022-11-15T10:35:47;13.20;43.70
6672;DHT22;3372;48.690;12.362;2022-11-15T10:38:13;13.20;43.10
6672;DHT22;3372;48.690;12.362;2022-11-15T10:40:40;13.30;43.20
6672;DHT22;3372;48.690;12.362;2022-11-15T10:45:35;13.20;42.20
6672;DHT22;3372;48.690;12.362;2022-11-15T10:50:46;13.10;42.00
6672;DHT22;3372;48.690;12.362;2022-11-15T10:53:21;13.10;43.60
6672;DHT22;3372;48.690;12.362;2022-11-15T10:55:51;13.20;43.40
6672;DHT22;3372;48.690;12.362;2022-11-15T10:58:32;13.30;42.40
6672;DHT22;3372;48.690;12.362;2022-11-15T11:01:18;13.30;41.30
6672;DHT22;3372;48.690;12.362;2022-11-15T11:03:58;13.40;39.70
6672;DHT22;3372;48.690;12.362;2022-11-15T11:06:27;13.40;41.40
6672;DHT22;3372;48.690;12.362;2022-11-15T11:08:57;13.50;41.10
6672;DHT22;3372;48.690;12.362;2022-11-15T11:11:23;13.50;41.30
6672;DHT22;3372;48.690;12.362;2022-11-15T11:13:49;13.50;40.90
6672;DHT22;3372;48.690;12.362;2022-11-15T11:30:02;13.40;40.90
6672;DHT22;3372;48.690;12.362;2022-11-15T11:35:41;13.50;39.80
6672;DHT22;3372;48.690;12.362;2022-11-15T11:49:28;13.70;38.50
6672;DHT22;3372;48.690;12.362;2022-11-15T11:52:03;13.70;37.80
6672;DHT22;3372;48.690;12.362;2022-11-15T11:54:48;13.80;38.00
6672;DHT22;3372;48.690;12.362;2022-11-15T12:02:40;13.90;38.10
6672;DHT22;3372;48.690;12.362;2022-11-15T12:05:26;14.00;38.00
6672;DHT22;3372;48.690;12.362;2022-11-15T12:07:54;14.00;36.60
6672;DHT22;3372;48.690;12.362;2022-11-15T12:10:29;14.10;36.80
6672;DHT22;3372;48.690;12.362;2022-11-15T12:13:00;14.00;37.00
6672;DHT22;3372;48.690;12.362;2022-11-15T12:15:35;14.10;36.40
6672;DHT22;3372;48.690;12.362;2022-11-15T12:18:02;14.10;36.90
6672;DHT22;3372;48.690;12.362;2022-11-15T12:20:33;14.20;37.20
6672;DHT22;3372;48.690;12.362;2022-11-15T12:23:32;14.20;36.40
6672;DHT22;3372;48.690;12.362;2022-11-15T12:26:07;14.30;36.50
6672;DHT22;3372;48.690;12.362;2022-11-15T12:28:47;14.20;36.70
6672;DHT22;3372;48.690;12.362;2022-11-15T12:31:43;14.20;37.60
6672;DHT22;3372;48.690;12.362;2022-11-15T12:36:49;14.30;37.00
6672;DHT22;3372;48.690;12.362;2022-11-15T12:39:16;14.40;36.80
6672;DHT22;3372;48.690;12.362;2022-11-15T12:41:44;14.40;35.30
6672;DHT22;3372;48.690;12.362;2022-11-15T12:47:23;14.30;34.80
6672;DHT22;3372;48.690;12.362;2022-11-15T12:49:49;14.30;36.20
6672;DHT22;3372;48.690;12.362;2022-11-15T12:52:16;14.30;36.70
6672;DHT22;3372;48.690;12.362;2022-11-15T13:02:41;14.50;36.80
6672;DHT22;3372;48.690;12.362;2022-11-15T13:17:49;14.50;37.70
6672;DHT22;3372;48.690;12.362;2022-11-15T13:30:40;14.60;36.90
6672;DHT22;3372;48.690;12.362;2022-11-15T13:33:09;14.70;37.90
6672;DHT22;3372;48.690;12.362;2022-11-15T13:35:40;14.70;36.80
6672;DHT22;3372;48.690;12.362;2022-11-15T13:40:56;14.70;36.80
6672;DHT22;3372;48.690;12.362;2022-11-15T13:46:19;14.70;38.30
6672;DHT22;3372;48.690;12.362;2022-11-15T13:48:51;14.70;37.70
6672;DHT22;3372;48.690;12.362;2022-11-15T13:54:19;14.70;38.10
6672;DHT22;3372;48.690;12.362;2022-11-15T13:56:49;14.60;36.80
6672;DHT22;3372;48.690;12.362;2022-11-15T13:59:33;14.60;37.20
6672;DHT22;3372;48.690;12.362;2022-11-15T14:02:03;14.60;36.80
6672;DHT22;3372;48.690;12.362;2022-11-15T14:04:35;14.70;36.10
6672;DHT22;3372;48.690;12.362;2022-11-15T14:07:01;14.70;37.40
6672;DHT22;3372;48.690;12.362;2022-11-15T14:09:38;14.70;37.60
6672;DHT22;3372;48.690;12.362;2022-11-15T14:12:49;14.60;36.80
6672;DHT22;3372;48.690;12.362;2022-11-15T14:15:35;14.70;36.90
6672;DHT22;3372;48.690;12.362;2022-11-15T14:18:03;14.60;37.40
6672;DHT22;3372;48.690;12.362;2022-11-15T14:20:32;14.60;37.90
6672;DHT22;3372;48.690;12.362;2022-11-15T14:23:05;14.60;38.30
6672;DHT22;3372;48.690;12.362;2022-11-15T14:25:53;14.60;38.30
6672;DHT22;3372;48.690;12.362;2022-11-15T14:30:52;14.50;39.10
6672;DHT22;3372;48.690;12.362;2022-11-15T14:33:30;14.40;39.10
6672;DHT22;3372;48.690;12.362;2022-11-15T14:35:58;14.40;39.60
6672;DHT22;3372;48.690;12.362;2022-11-15T14:38:27;14.40;40.30
6672;DHT22;3372;48.690;12.362;2022-11-15T14:40:53;14.40;40.10
6672;DHT22;3372;48.690;12.362;2022-11-15T14:43:20;14.30;40.40
6672;DHT22;3372;48.690;12.362;2022-11-15T14:45:45;14.30;40.60
6672;DHT22;3372;48.690;12.362;2022-11-15T14:48:11;14.20;41.10
6672;DHT22;3372;48.690;12.362;2022-11-15T14:50:37;14.20;41.10
6672;DHT22;3372;48.690;12.362;2022-11-15T14:53:03;14.10;41.50
6672;DHT22;3372;48.690;12.362;2022-11-15T14:55:34;14.10;41.40
6672;DHT22;3372;48.690;12.362;2022-11-15T14:58:02;14.00;41.70
6672;DHT22;3372;48.690;12.362;2022-11-15T15:00:29;13.90;41.80
6672;DHT22;3372;48.690;12.362;2022-11-15T15:02:55;13.80;41.70
6672;DHT22;3372;48.690;12.362;2022-11-15T15:05:29;13.80;41.70
6672;DHT22;3372;48.690;12.362;2022-11-15T15:07:55;13.70;41.60
6672;DHT22;3372;48.690;12.362;2022-11-15T15:10:21;13.60;41.50
6672;DHT22;3372;48.690;12.362;2022-11-15T15:12:47;13.60;41.30
6672;DHT22;3372;48.690;12.362;2022-11-15T15:15:25;13.50;41.50
6672;DHT22;3372;48.690;12.362;2022-11-15T15:17:50;13.30;40.90
6672;DHT22;3372;48.690;12.362;2022-11-15T15:20:16;13.30;41.30
6672;DHT22;3372;48.690;12.362;2022-11-15T15:22:42;13.20;41.20
6672;DHT22;3372;48.690;12.362;2022-11-15T15:25:34;13.20;41.20
6672;DHT22;3372;48.690;12.362;2022-11-15T15:28:02;13.00;40.50
6672;DHT22;3372;48.690;12.362;2022-11-15T15:30:29;12.90;41.00
6672;DHT22;3372;48.690;12.362;2022-11-15T15:32:55;12.70;40.70
6672;DHT22;3372;48.690;12.362;2022-11-15T15:35:21;12.70;40.30
6672;DHT22;3372;48.690;12.362;2022-11-15T15:37:48;12.60;40.20
6672;DHT22;3372;48.690;12.362;2022-11-15T15:40:15;12.40;40.00
6672;DHT22;3372;48.690;12.362;2022-11-15T15:42:41;12.30;40.30
6672;DHT22;3372;48.690;12.362;2022-11-15T15:45:08;12.30;40.40
6672;DHT22;3372;48.690;12.362;2022-11-15T15:47:34;12.20;40.30
6672;DHT22;3372;48.690;12.362;2022-11-15T15:49:59;12.10;40.20
6672;DHT22;3372;48.690;12.362;2022-11-15T15:52:25;12.00;40.10
6672;DHT22;3372;48.690;12.362;2022-11-15T15:54:51;11.90;40.30
6672;DHT22;3372;48.690;12.362;2022-11-15T15:57:16;11.80;40.00
6672;DHT22;3372;48.690;12.362;2022-11-15T15:59:42;11.70;39.80
6672;DHT22;3372;48.690;12.362;2022-11-15T16:02:14;11.70;40.50
6672;DHT22;3372;48.690;12.362;2022-11-15T16:04:40;11.50;39.70
6672;DHT22;3372;48.690;12.362;2022-11-15T16:07:07;11.50;39.70
6672;DHT22;3372;48.690;12.362;2022-11-15T16:09:36;11.50;39.60
6672;DHT22;3372;48.690;12.362;2022-11-15T16:12:20;11.40;39.70
6672;DHT22;3372;48.690;12.362;2022-11-15T16:14:46;11.40;39.50
6672;DHT22;3372;48.690;12.362;2022-11-15T16:17:17;11.30;39.40
6672;DHT22;3372;48.690;12.362;2022-11-15T16:19:43;11.30;39.30
6672;DHT22;3372;48.690;12.362;2022-11-15T16:22:14;11.20;39.10
6672;DHT22;3372;48.690;12.362;2022-11-15T16:24:39;11.20;38.50
6672;DHT22;3372;48.690;12.362;2022-11-15T16:27:09;11.10;38.80
6672;DHT22;3372;48.690;12.362;2022-11-15T16:29:35;11.00;38.60
6672;DHT22;3372;48.690;12.362;2022-11-15T16:32:01;10.90;39.00
6672;DHT22;3372;48.690;12.362;2022-11-15T16:34:26;10.80;39.00
6672;DHT22;3372;48.690;12.362;2022-11-15T16:36:53;10.80;39.00
6672;DHT22;3372;48.690;12.362;2022-11-15T16:39:18;10.70;38.80
6672;DHT22;3372;48.690;12.362;2022-11-15T16:41:44;10.80;38.90
6672;DHT22;3372;48.690;12.362;2022-11-15T16:44:13;10.80;38.90
6672;DHT22;3372;48.690;12.362;2022-11-15T16:46:41;10.70;37.90
6672;DHT22;3372;48.690;12.362;2022-11-15T16:49:12;10.70;38.10
6672;DHT22;3372;48.690;12.362;2022-11-15T16:51:39;10.70;37.80
6672;DHT22;3372;48.690;12.362;2022-11-15T16:54:06;10.60;37.90
6672;DHT22;3372;48.690;12.362;2022-11-15T16:56:33;10.50;37.90
6672;DHT22;3372;48.690;12.362;2022-11-15T16:59:00;10.40;38.20
6672;DHT22;3372;48.690;12.362;2022-11-15T17:01:32;10.30;38.60
6672;DHT22;3372;48.690;12.362;2022-11-15T17:04:00;10.20;37.90
6672;DHT22;3372;48.690;12.362;2022-11-15T17:06:37;10.20;38.30
6672;DHT22;3372;48.690;12.362;2022-11-15T17:09:03;10.20;38.00
6672;DHT22;3372;48.690;12.362;2022-11-15T17:11:29;10.20;37.80
6672;DHT22;3372;48.690;12.362;2022-11-15T17:13:58;10.10;37.70
6672;DHT22;3372;48.690;12.362;2022-11-15T17:16:24;10.00;38.20
6672;DHT22;3372;48.690;12.362;2022-11-15T17:18:51;10.00;38.20
6672;DHT22;3372;48.690;12.362;2022-11-15T17:21:18;9.90;39.20
6672;DHT22;3372;48.690;12.362;2022-11-15T17:23:45;9.80;39.10
6672;DHT22;3372;48.690;12.362;2022-11-15T17:26:13;9.80;39.40
6672;DHT22;3372;48.690;12.362;2022-11-15T17:28:39;9.80;39.40
6672;DHT22;3372;48.690;12.362;2022-11-15T17:31:07;9.80;39.10
6672;DHT22;3372;48.690;12.362;2022-11-15T17:33:33;9.90;39.10
6672;DHT22;3372;48.690;12.362;2022-11-15T17:36:01;9.80;39.10
6672;DHT22;3372;48.690;12.362;2022-11-15T17:38:27;9.70;39.20
6672;DHT22;3372;48.690;12.362;2022-11-15T17:41:01;9.60;39.40
6672;DHT22;3372;48.690;12.362;2022-11-15T17:43:28;9.50;38.80
6672;DHT22;3372;48.690;12.362;2022-11-15T17:45:53;9.50;39.50
6672;DHT22;3372;48.690;12.362;2022-11-15T17:48:19;9.40;39.90
6672;DHT22;3372;48.690;12.362;2022-11-15T17:50:57;9.40;40.00
6672;DHT22;3372;48.690;12.362;2022-11-15T17:53:24;9.30;40.00
6672;DHT22;3372;48.690;12.362;2022-11-15T17:55:50;9.20;39.90
6672;DHT22;3372;48.690;12.362;2022-11-15T17:58:15;9.10;39.60
6672;DHT22;3372;48.690;12.362;2022-11-15T18:00:47;9.20;39.70
6672;DHT22;3372;48.690;12.362;2022-11-15T18:03:13;9.20;39.50
6672;DHT22;3372;48.690;12.362;2022-11-15T18:05:40;9.20;39.30
6672;DHT22;3372;48.690;12.362;2022-11-15T18:08:09;9.20;39.20
6672;DHT22;3372;48.690;12.362;2022-11-15T18:10:35;9.10;39.10
6672;DHT22;3372;48.690;12.362;2022-11-15T18:13:01;9.20;39.20
6672;DHT22;3372;48.690;12.362;2022-11-15T18:15:26;9.20;39.20
6672;DHT22;3372;48.690;12.362;2022-11-15T18:17:53;9.10;39.80
6672;DHT22;3372;48.690;12.362;2022-11-15T18:20:19;8.90;41.00
6672;DHT22;3372;48.690;12.362;2022-11-15T18:22:44;8.80;43.80
6672;DHT22;3372;48.690;12.362;2022-11-15T18:25:10;8.80;44.20
6672;DHT22;3372;48.690;12.362;2022-11-15T18:27:35;8.90;44.80
6672;DHT22;3372;48.690;12.362;2022-11-15T18:30:03;8.90;43.00
6672;DHT22;3372;48.690;12.362;2022-11-15T18:32:29;8.90;42.30
6672;DHT22;3372;48.690;12.362;2022-11-15T18:34:54;9.00;42.40